sensor_id;sensor_type;location;lat;lon;timestamp;P1;durP1;ratioP1;P2;durP2;ratioP2
8640;SDS011;4358;42.100;25.222;2023-06-26T00:01:57;5.70;;;4.50;;
8640;SDS011;4358;42.100;25.222;2023-06-26T00:04:24;5.17;;;3.97;;
8640;SDS011;4358;42.100;25.222;2023-06-26T00:06:51;5.40;;;4.30;;
8640;SDS011;4358;42.100;25.222;2023-06-26T00:09:18;4.03;;;3.63;;
8640;SDS011;4358;42.100;25.222;2023-06-26T00:11:44;5.80;;;3.83;;
8640;SDS011;4358;42.100;25.222;2023-06-26T00:14:12;4.67;;;3.93;;
8640;SDS011;4358;42.100;25.222;2023-06-26T00:16:39;5.37;;;4.33;;
8640;SDS011;4358;42.100;25.222;2023-06-26T00:19:07;5.03;;;3.90;;
8640;SDS011;4358;42.100;25.222;2023-06-26T00:21:34;4.73;;;3.80;;
8640;SDS011;4358;42.100;25.222;2023-06-26T00:24:01;4.03;;;3.40;;
8640;SDS011;4358;42.100;25.222;2023-06-26T00:26:28;4.60;;;3.47;;
8640;SDS011;4358;42.100;25.222;2023-06-26T00:28:54;5.53;;;3.73;;
8640;SDS011;4358;42.100;25.222;2023-06-26T00:31:23;5.70;;;3.87;;
8640;SDS011;4358;42.100;25.222;2023-06-26T00:33:49;4.20;;;3.50;;
8640;SDS011;4358;42.100;25.222;2023-06-26T00:36:16;5.20;;;3.40;;
8640;SDS011;4358;42.100;25.222;2023-06-26T00:38:43;5.20;;;3.60;;
8640;SDS011;4358;42.100;25.222;2023-06-26T00:41:10;4.17;;;3.47;;
8640;SDS011;4358;42.100;25.222;2023-06-26T00:43:38;4.40;;;3.47;;
8640;SDS011;4358;42.100;25.222;2023-06-26T00:46:06;4.93;;;3.73;;
8640;SDS011;4358;42.100;25.222;2023-06-26T00:48:37;4.93;;;3.90;;
8640;SDS011;4358;42.100;25.222;2023-06-26T00:51:04;5.30;;;3.67;;
8640;SDS011;4358;42.100;25.222;2023-06-26T00:53:31;4.70;;;3.43;;
8640;SDS011;4358;42.100;25.222;2023-06-26T00:55:59;3.33;;;2.83;;
8640;SDS011;4358;42.100;25.222;2023-06-26T00:58:26;4.07;;;3.10;;
8640;SDS011;4358;42.100;25.222;2023-06-26T01:00:53;6.53;;;3.03;;
8640;SDS011;4358;42.100;25.222;2023-06-26T01:03:20;4.10;;;3.17;;
8640;SDS011;4358;42.100;25.222;2023-06-26T01:05:49;3.70;;;3.27;;
8640;SDS011;4358;42.100;25.222;2023-06-26T01:08:17;4.27;;;2.77;;
8640;SDS011;4358;42.100;25.222;2023-06-26T01:10:45;3.07;;;2.63;;
8640;SDS011;4358;42.100;25.222;2023-06-26T01:13:12;4.90;;;2.93;;
8640;SDS011;4358;42.100;25.222;2023-06-26T01:15:41;3.63;;;2.90;;
8640;SDS011;4358;42.100;25.222;2023-06-26T01:18:08;5.27;;;3.60;;
8640;SDS011;4358;42.100;25.222;2023-06-26T01:20:36;5.43;;;2.87;;
8640;SDS011;4358;42.100;25.222;2023-06-26T01:23:12;4.40;;;3.03;;
8640;SDS011;4358;42.100;25.222;2023-06-26T01:25:51;7.20;;;3.70;;
8640;SDS011;4358;42.100;25.222;2023-06-26T01:28:29;6.03;;;4.30;;
8640;SDS011;4358;42.100;25.222;2023-06-26T01:30:58;4.83;;;4.13;;
8640;SDS011;4358;42.100;25.222;2023-06-26T01:33:25;7.33;;;4.00;;
8640;SDS011;4358;42.100;25.222;2023-06-26T01:35:53;4.07;;;3.53;;
8640;SDS011;4358;42.100;25.222;2023-06-26T01:38:20;5.10;;;3.77;;
8640;SDS011;4358;42.100;25.222;2023-06-26T01:40:48;4.10;;;3.70;;
8640;SDS011;4358;42.100;25.222;2023-06-26T01:43:18;7.50;;;4.10;;
8640;SDS011;4358;42.100;25.222;2023-06-26T01:45:53;6.37;;;4.00;;
8640;SDS011;4358;42.100;25.222;2023-06-26T01:48:25;6.17;;;3.83;;
8640;SDS011;4358;42.100;25.222;2023-06-26T01:50:57;6.97;;;4.27;;
8640;SDS011;4358;42.100;25.222;2023-06-26T01:53:25;5.77;;;4.43;;
8640;SDS011;4358;42.100;25.222;2023-06-26T01:56:03;6.17;;;5.00;;
8640;SDS011;4358;42.100;25.222;2023-06-26T01:58:34;5.57;;;4.37;;
8640;SDS011;4358;42.100;25.222;2023-06-26T02:01:04;4.80;;;3.87;;
8640;SDS011;4358;42.100;25.222;2023-06-26T02:03:31;6.23;;;4.07;;
8640;SDS011;4358;42.100;25.222;2023-06-26T02:05:58;5.07;;;3.73;;
8640;SDS011;4358;42.100;25.222;2023-06-26T02:08:25;8.10;;;4.37;;
8640;SDS011;4358;42.100;25.222;2023-06-26T02:10:52;6.97;;;4.17;;
8640;SDS011;4358;42.100;25.222;2023-06-26T02:13:18;5.57;;;4.20;;
8640;SDS011;4358;42.100;25.222;2023-06-26T02:15:45;6.90;;;5.40;;
8640;SDS011;4358;42.100;25.222;2023-06-26T02:18:13;9.37;;;6.53;;
8640;SDS011;4358;42.100;25.222;2023-06-26T02:20:40;9.07;;;6.37;;
8640;SDS011;4358;42.100;25.222;2023-06-26T02:23:09;12.33;;;10.03;;
8640;SDS011;4358;42.100;25.222;2023-06-26T02:25:36;15.17;;;10.37;;
8640;SDS011;4358;42.100;25.222;2023-06-26T02:28:03;8.67;;;6.43;;
8640;SDS011;4358;42.100;25.222;2023-06-26T02:30:30;9.57;;;7.40;;
8640;SDS011;4358;42.100;25.222;2023-06-26T02:32:56;11.63;;;9.37;;
8640;SDS011;4358;42.100;25.222;2023-06-26T02:35:25;12.00;;;7.90;;
8640;SDS011;4358;42.100;25.222;2023-06-26T02:37:51;9.80;;;8.20;;
8640;SDS011;4358;42.100;25.222;2023-06-26T02:40:18;9.43;;;7.03;;
8640;SDS011;4358;42.100;25.222;2023-06-26T02:42:45;14.47;;;9.43;;
8640;SDS011;4358;42.100;25.222;2023-06-26T02:45:12;12.77;;;8.43;;
8640;SDS011;4358;42.100;25.222;2023-06-26T02:47:39;15.67;;;8.63;;
8640;SDS011;4358;42.100;25.222;2023-06-26T02:50:06;10.07;;;8.63;;
8640;SDS011;4358;42.100;25.222;2023-06-26T02:52:34;17.40;;;10.43;;
8640;SDS011;4358;42.100;25.222;2023-06-26T02:55:01;14.27;;;10.83;;
8640;SDS011;4358;42.100;25.222;2023-06-26T02:57:28;14.87;;;10.90;;
8640;SDS011;4358;42.100;25.222;2023-06-26T02:59:55;14.33;;;10.83;;
8640;SDS011;4358;42.100;25.222;2023-06-26T03:02:22;15.70;;;11.63;;
8640;SDS011;4358;42.100;25.222;2023-06-26T03:04:49;14.67;;;10.90;;
8640;SDS011;4358;42.100;25.222;2023-06-26T03:07:16;14.20;;;8.63;;
8640;SDS011;4358;42.100;25.222;2023-06-26T03:09:45;13.87;;;8.80;;
8640;SDS011;4358;42.100;25.222;2023-06-26T03:12:11;14.17;;;10.20;;
8640;SDS011;4358;42.100;25.222;2023-06-26T03:14:38;14.13;;;9.27;;
8640;SDS011;4358;42.100;25.222;2023-06-26T03:17:05;13.27;;;9.37;;
8640;SDS011;4358;42.100;25.222;2023-06-26T03:19:32;11.40;;;8.43;;
8640;SDS011;4358;42.100;25.222;2023-06-26T03:21:59;11.87;;;7.93;;
8640;SDS011;4358;42.100;25.222;2023-06-26T03:24:26;11.00;;;7.43;;
8640;SDS011;4358;42.100;25.222;2023-06-26T03:26:54;12.20;;;7.63;;
8640;SDS011;4358;42.100;25.222;2023-06-26T03:29:21;11.13;;;7.13;;
8640;SDS011;4358;42.100;25.222;2023-06-26T03:31:47;9.33;;;6.93;;
8640;SDS011;4358;42.100;25.222;2023-06-26T03:34:14;14.47;;;7.40;;
8640;SDS011;4358;42.100;25.222;2023-06-26T03:36:41;11.37;;;7.97;;
8640;SDS011;4358;42.100;25.222;2023-06-26T03:39:08;10.80;;;7.60;;
8640;SDS011;4358;42.100;25.222;2023-06-26T03:41:35;12.73;;;7.90;;
8640;SDS011;4358;42.100;25.222;2023-06-26T03:44:03;10.03;;;7.37;;
8640;SDS011;4358;42.100;25.222;2023-06-26T03:46:30;11.47;;;7.30;;
8640;SDS011;4358;42.100;25.222;2023-06-26T03:48:57;10.10;;;7.27;;
8640;SDS011;4358;42.100;25.222;2023-06-26T03:51:23;12.60;;;7.47;;
8640;SDS011;4358;42.100;25.222;2023-06-26T03:53:50;10.30;;;7.50;;
8640;SDS011;4358;42.100;25.222;2023-06-26T03:56:17;9.37;;;8.13;;
8640;SDS011;4358;42.100;25.222;2023-06-26T03:58:44;10.97;;;6.97;;
8640;SDS011;4358;42.100;25.222;2023-06-26T04:01:12;12.07;;;8.00;;
8640;SDS011;4358;42.100;25.222;2023-06-26T04:03:39;11.07;;;8.10;;
8640;SDS011;4358;42.100;25.222;2023-06-26T04:06:06;9.27;;;7.37;;
8640;SDS011;4358;42.100;25.222;2023-06-26T04:08:33;12.87;;;7.67;;
8640;SDS011;4358;42.100;25.222;2023-06-26T04:11:00;12.90;;;8.27;;
8640;SDS011;4358;42.100;25.222;2023-06-26T04:13:26;11.10;;;8.33;;
8640;SDS011;4358;42.100;25.222;2023-06-26T04:15:53;11.13;;;7.83;;
8640;SDS011;4358;42.100;25.222;2023-06-26T04:18:21;10.13;;;8.10;;
8640;SDS011;4358;42.100;25.222;2023-06-26T04:21:04;10.37;;;8.30;;
8640;SDS011;4358;42.100;25.222;2023-06-26T04:23:32;11.57;;;8.33;;
8640;SDS011;4358;42.100;25.222;2023-06-26T04:25:59;12.77;;;8.63;;
8640;SDS011;4358;42.100;25.222;2023-06-26T04:28:27;11.97;;;7.80;;
8640;SDS011;4358;42.100;25.222;2023-06-26T04:30:54;13.50;;;9.00;;
8640;SDS011;4358;42.100;25.222;2023-06-26T04:33:22;11.77;;;8.47;;
8640;SDS011;4358;42.100;25.222;2023-06-26T04:35:50;12.47;;;8.80;;
8640;SDS011;4358;42.100;25.222;2023-06-26T04:38:18;12.70;;;8.33;;
8640;SDS011;4358;42.100;25.222;2023-06-26T04:40:45;13.40;;;8.43;;
8640;SDS011;4358;42.100;25.222;2023-06-26T04:43:12;15.13;;;9.53;;
8640;SDS011;4358;42.100;25.222;2023-06-26T04:45:39;13.33;;;9.50;;
8640;SDS011;4358;42.100;25.222;2023-06-26T04:48:06;12.00;;;8.57;;
8640;SDS011;4358;42.100;25.222;2023-06-26T04:50:35;16.33;;;10.63;;
8640;SDS011;4358;42.100;25.222;2023-06-26T04:53:02;12.77;;;9.43;;
8640;SDS011;4358;42.100;25.222;2023-06-26T04:55:29;11.13;;;8.53;;
8640;SDS011;4358;42.100;25.222;2023-06-26T04:57:55;12.60;;;8.87;;
8640;SDS011;4358;42.100;25.222;2023-06-26T05:00:22;16.23;;;9.07;;
8640;SDS011;4358;42.100;25.222;2023-06-26T05:02:50;11.87;;;8.27;;
8640;SDS011;4358;42.100;25.222;2023-06-26T05:05:26;14.63;;;8.63;;
8640;SDS011;4358;42.100;25.222;2023-06-26T05:07:55;15.77;;;8.53;;
8640;SDS011;4358;42.100;25.222;2023-06-26T05:10:22;12.07;;;8.33;;
8640;SDS011;4358;42.100;25.222;2023-06-26T05:12:49;11.80;;;8.53;;
8640;SDS011;4358;42.100;25.222;2023-06-26T05:15:16;13.87;;;9.40;;
8640;SDS011;4358;42.100;25.222;2023-06-26T05:17:42;13.63;;;9.27;;
8640;SDS011;4358;42.100;25.222;2023-06-26T05:20:10;14.27;;;9.20;;
8640;SDS011;4358;42.100;25.222;2023-06-26T05:22:37;11.37;;;9.17;;
8640;SDS011;4358;42.100;25.222;2023-06-26T05:25:07;14.10;;;9.23;;
8640;SDS011;4358;42.100;25.222;2023-06-26T05:27:35;12.00;;;9.13;;
8640;SDS011;4358;42.100;25.222;2023-06-26T05:30:03;10.70;;;7.83;;
8640;SDS011;4358;42.100;25.222;2023-06-26T05:32:31;9.77;;;8.60;;
8640;SDS011;4358;42.100;25.222;2023-06-26T05:35:00;12.53;;;9.23;;
8640;SDS011;4358;42.100;25.222;2023-06-26T05:37:29;13.23;;;9.40;;
8640;SDS011;4358;42.100;25.222;2023-06-26T05:39:58;9.93;;;8.93;;
8640;SDS011;4358;42.100;25.222;2023-06-26T05:42:27;11.83;;;9.63;;
8640;SDS011;4358;42.100;25.222;2023-06-26T05:44:55;15.10;;;9.97;;
8640;SDS011;4358;42.100;25.222;2023-06-26T05:47:22;12.10;;;9.67;;
8640;SDS011;4358;42.100;25.222;2023-06-26T05:49:49;14.07;;;9.77;;
8640;SDS011;4358;42.100;25.222;2023-06-26T05:52:16;13.17;;;8.97;;
8640;SDS011;4358;42.100;25.222;2023-06-26T05:54:43;14.07;;;9.80;;
8640;SDS011;4358;42.100;25.222;2023-06-26T05:57:10;11.00;;;9.00;;
8640;SDS011;4358;42.100;25.222;2023-06-26T05:59:42;9.20;;;8.23;;
8640;SDS011;4358;42.100;25.222;2023-06-26T06:02:11;12.70;;;8.73;;
8640;SDS011;4358;42.100;25.222;2023-06-26T06:04:38;10.10;;;8.47;;
8640;SDS011;4358;42.100;25.222;2023-06-26T06:07:05;9.83;;;8.30;;
8640;SDS011;4358;42.100;25.222;2023-06-26T06:09:32;12.33;;;8.57;;
8640;SDS011;4358;42.100;25.222;2023-06-26T06:11:59;9.73;;;8.23;;
8640;SDS011;4358;42.100;25.222;2023-06-26T06:14:27;10.83;;;9.20;;
8640;SDS011;4358;42.100;25.222;2023-06-26T06:16:55;10.43;;;8.77;;
8640;SDS011;4358;42.100;25.222;2023-06-26T06:19:23;10.53;;;9.47;;
8640;SDS011;4358;42.100;25.222;2023-06-26T06:21:50;9.27;;;7.90;;
8640;SDS011;4358;42.100;25.222;2023-06-26T06:24:17;12.10;;;7.97;;
8640;SDS011;4358;42.100;25.222;2023-06-26T06:26:43;9.27;;;7.93;;
8640;SDS011;4358;42.100;25.222;2023-06-26T06:29:10;8.60;;;7.37;;
8640;SDS011;4358;42.100;25.222;2023-06-26T06:31:37;10.33;;;7.47;;
8640;SDS011;4358;42.100;25.222;2023-06-26T06:34:05;10.53;;;7.37;;
8640;SDS011;4358;42.100;25.222;2023-06-26T06:36:32;11.40;;;7.67;;
8640;SDS011;4358;42.100;25.222;2023-06-26T06:38:59;7.60;;;6.47;;
8640;SDS011;4358;42.100;25.222;2023-06-26T06:41:26;7.47;;;6.50;;
8640;SDS011;4358;42.100;25.222;2023-06-26T06:43:53;11.23;;;6.00;;
8640;SDS011;4358;42.100;25.222;2023-06-26T06:46:20;9.70;;;6.60;;
8640;SDS011;4358;42.100;25.222;2023-06-26T06:48:47;9.73;;;6.13;;
8640;SDS011;4358;42.100;25.222;2023-06-26T06:51:15;9.53;;;5.80;;
8640;SDS011;4358;42.100;25.222;2023-06-26T06:53:42;7.40;;;5.70;;
8640;SDS011;4358;42.100;25.222;2023-06-26T06:56:08;9.20;;;5.07;;
8640;SDS011;4358;42.100;25.222;2023-06-26T06:58:35;5.80;;;4.83;;
8640;SDS011;4358;42.100;25.222;2023-06-26T07:01:02;5.47;;;4.47;;
8640;SDS011;4358;42.100;25.222;2023-06-26T07:03:29;5.63;;;5.10;;
8640;SDS011;4358;42.100;25.222;2023-06-26T07:05:56;6.20;;;4.80;;
8640;SDS011;4358;42.100;25.222;2023-06-26T07:08:24;8.33;;;5.10;;
8640;SDS011;4358;42.100;25.222;2023-06-26T07:10:51;8.63;;;4.33;;
8640;SDS011;4358;42.100;25.222;2023-06-26T07:13:18;4.37;;;3.97;;
8640;SDS011;4358;42.100;25.222;2023-06-26T07:15:45;6.27;;;3.93;;
8640;SDS011;4358;42.100;25.222;2023-06-26T07:18:13;4.63;;;3.37;;
8640;SDS011;4358;42.100;25.222;2023-06-26T07:20:40;5.03;;;3.83;;
8640;SDS011;4358;42.100;25.222;2023-06-26T07:23:07;5.63;;;3.43;;
8640;SDS011;4358;42.100;25.222;2023-06-26T07:25:36;4.93;;;3.40;;
8640;SDS011;4358;42.100;25.222;2023-06-26T07:28:03;2.70;;;2.43;;
8640;SDS011;4358;42.100;25.222;2023-06-26T07:30:29;3.17;;;2.50;;
8640;SDS011;4358;42.100;25.222;2023-06-26T07:32:56;4.30;;;3.33;;
8640;SDS011;4358;42.100;25.222;2023-06-26T07:35:23;3.23;;;2.43;;
8640;SDS011;4358;42.100;25.222;2023-06-26T07:37:52;5.50;;;2.70;;
8640;SDS011;4358;42.100;25.222;2023-06-26T07:40:19;5.80;;;4.00;;
8640;SDS011;4358;42.100;25.222;2023-06-26T07:42:47;3.90;;;3.10;;
8640;SDS011;4358;42.100;25.222;2023-06-26T07:45:15;5.10;;;2.67;;
8640;SDS011;4358;42.100;25.222;2023-06-26T07:47:42;3.60;;;2.50;;
8640;SDS011;4358;42.100;25.222;2023-06-26T07:50:09;7.27;;;3.20;;
8640;SDS011;4358;42.100;25.222;2023-06-26T07:52:36;4.30;;;2.83;;
8640;SDS011;4358;42.100;25.222;2023-06-26T07:55:03;5.03;;;3.10;;
8640;SDS011;4358;42.100;25.222;2023-06-26T07:57:30;6.70;;;2.83;;
8640;SDS011;4358;42.100;25.222;2023-06-26T07:59:59;3.10;;;2.70;;
8640;SDS011;4358;42.100;25.222;2023-06-26T08:02:26;3.70;;;3.10;;
8640;SDS011;4358;42.100;25.222;2023-06-26T08:04:54;3.53;;;2.90;;
8640;SDS011;4358;42.100;25.222;2023-06-26T08:07:21;2.87;;;2.67;;
8640;SDS011;4358;42.100;25.222;2023-06-26T08:09:47;3.15;;;2.88;;
8640;SDS011;4358;42.100;25.222;2023-06-26T08:12:14;3.17;;;2.80;;
8640;SDS011;4358;42.100;25.222;2023-06-26T08:14:41;3.17;;;2.88;;
8640;SDS011;4358;42.100;25.222;2023-06-26T08:17:09;3.63;;;2.60;;
8640;SDS011;4358;42.100;25.222;2023-06-26T08:19:36;3.78;;;3.10;;
8640;SDS011;4358;42.100;25.222;2023-06-26T08:22:03;4.70;;;3.00;;
8640;SDS011;4358;42.100;25.222;2023-06-26T08:24:30;3.28;;;2.97;;
8640;SDS011;4358;42.100;25.222;2023-06-26T08:26:57;4.07;;;2.90;;
8640;SDS011;4358;42.100;25.222;2023-06-26T08:29:24;4.95;;;3.05;;
8640;SDS011;4358;42.100;25.222;2023-06-26T08:31:51;2.78;;;2.58;;
8640;SDS011;4358;42.100;25.222;2023-06-26T08:34:19;3.30;;;2.65;;
8640;SDS011;4358;42.100;25.222;2023-06-26T08:36:46;2.97;;;2.70;;
8640;SDS011;4358;42.100;25.222;2023-06-26T08:39:12;4.05;;;3.00;;
8640;SDS011;4358;42.100;25.222;2023-06-26T08:41:39;3.42;;;2.60;;
8640;SDS011;4358;42.100;25.222;2023-06-26T08:44:07;2.95;;;2.65;;
8640;SDS011;4358;42.100;25.222;2023-06-26T08:46:34;6.47;;;5.80;;
8640;SDS011;4358;42.100;25.222;2023-06-26T08:49:05;4.80;;;2.55;;
8640;SDS011;4358;42.100;25.222;2023-06-26T08:51:40;3.30;;;2.95;;
8640;SDS011;4358;42.100;25.222;2023-06-26T08:54:10;3.30;;;3.00;;
8640;SDS011;4358;42.100;25.222;2023-06-26T08:56:42;3.53;;;3.00;;
8640;SDS011;4358;42.100;25.222;2023-06-26T08:59:10;2.72;;;2.42;;
8640;SDS011;4358;42.100;25.222;2023-06-26T09:01:37;3.03;;;2.40;;
8640;SDS011;4358;42.100;25.222;2023-06-26T09:04:05;2.58;;;2.35;;
8640;SDS011;4358;42.100;25.222;2023-06-26T09:06:32;2.90;;;2.55;;
8640;SDS011;4358;42.100;25.222;2023-06-26T09:09:01;2.80;;;2.60;;
8640;SDS011;4358;42.100;25.222;2023-06-26T09:11:28;4.50;;;2.70;;
8640;SDS011;4358;42.100;25.222;2023-06-26T09:13:55;2.90;;;2.58;;
8640;SDS011;4358;42.100;25.222;2023-06-26T09:16:24;3.60;;;3.30;;
8640;SDS011;4358;42.100;25.222;2023-06-26T09:18:52;3.92;;;3.30;;
8640;SDS011;4358;42.100;25.222;2023-06-26T09:21:19;3.00;;;2.70;;
8640;SDS011;4358;42.100;25.222;2023-06-26T09:23:48;3.00;;;2.80;;
8640;SDS011;4358;42.100;25.222;2023-06-26T09:26:17;6.55;;;2.90;;
8640;SDS011;4358;42.100;25.222;2023-06-26T09:28:44;3.67;;;2.95;;
8640;SDS011;4358;42.100;25.222;2023-06-26T09:31:12;3.15;;;2.85;;
8640;SDS011;4358;42.100;25.222;2023-06-26T09:33:39;3.30;;;2.95;;
8640;SDS011;4358;42.100;25.222;2023-06-26T09:36:07;4.93;;;2.97;;
8640;SDS011;4358;42.100;25.222;2023-06-26T09:38:36;3.63;;;3.08;;
8640;SDS011;4358;42.100;25.222;2023-06-26T09:41:02;4.05;;;2.80;;
8640;SDS011;4358;42.100;25.222;2023-06-26T09:43:31;3.55;;;2.97;;
8640;SDS011;4358;42.100;25.222;2023-06-26T09:45:58;2.97;;;2.55;;
8640;SDS011;4358;42.100;25.222;2023-06-26T09:48:24;3.30;;;2.60;;
8640;SDS011;4358;42.100;25.222;2023-06-26T09:50:52;2.38;;;2.17;;
8640;SDS011;4358;42.100;25.222;2023-06-26T09:53:19;3.25;;;2.53;;
8640;SDS011;4358;42.100;25.222;2023-06-26T09:55:46;3.33;;;2.63;;
8640;SDS011;4358;42.100;25.222;2023-06-26T09:58:13;3.15;;;2.85;;
8640;SDS011;4358;42.100;25.222;2023-06-26T10:00:42;2.58;;;2.35;;
8640;SDS011;4358;42.100;25.222;2023-06-26T10:03:09;4.22;;;2.60;;
8640;SDS011;4358;42.100;25.222;2023-06-26T10:05:37;4.18;;;2.90;;
8640;SDS011;4358;42.100;25.222;2023-06-26T10:08:04;3.45;;;2.70;;
8640;SDS011;4358;42.100;25.222;2023-06-26T10:10:32;3.08;;;2.53;;
8640;SDS011;4358;42.100;25.222;2023-06-26T10:13:02;4.47;;;2.58;;
8640;SDS011;4358;42.100;25.222;2023-06-26T10:15:34;3.30;;;2.72;;
8640;SDS011;4358;42.100;25.222;2023-06-26T10:18:04;2.80;;;2.53;;
8640;SDS011;4358;42.100;25.222;2023-06-26T10:20:32;4.30;;;2.55;;
8640;SDS011;4358;42.100;25.222;2023-06-26T10:23:00;4.68;;;3.10;;
8640;SDS011;4358;42.100;25.222;2023-06-26T10:25:29;3.70;;;1.90;;
8640;SDS011;4358;42.100;25.222;2023-06-26T10:27:58;4.03;;;2.40;;
8640;SDS011;4358;42.100;25.222;2023-06-26T10:30:28;3.22;;;2.47;;
8640;SDS011;4358;42.100;25.222;2023-06-26T10:32:57;3.78;;;3.10;;
8640;SDS011;4358;42.100;25.222;2023-06-26T10:35:29;4.18;;;2.50;;
8640;SDS011;4358;42.100;25.222;2023-06-26T10:38:00;3.35;;;2.50;;
8640;SDS011;4358;42.100;25.222;2023-06-26T10:40:33;3.50;;;2.60;;
8640;SDS011;4358;42.100;25.222;2023-06-26T10:43:07;2.35;;;2.15;;
8640;SDS011;4358;42.100;25.222;2023-06-26T10:45:35;3.15;;;2.33;;
8640;SDS011;4358;42.100;25.222;2023-06-26T10:48:02;4.00;;;2.20;;
8640;SDS011;4358;42.100;25.222;2023-06-26T10:50:31;2.30;;;2.10;;
8640;SDS011;4358;42.100;25.222;2023-06-26T10:53:14;3.30;;;2.47;;
8640;SDS011;4358;42.100;25.222;2023-06-26T10:55:47;2.63;;;2.10;;
8640;SDS011;4358;42.100;25.222;2023-06-26T10:58:28;2.90;;;2.20;;
8640;SDS011;4358;42.100;25.222;2023-06-26T11:03:41;2.47;;;2.10;;
8640;SDS011;4358;42.100;25.222;2023-06-26T11:06:12;3.97;;;2.40;;
8640;SDS011;4358;42.100;25.222;2023-06-26T11:08:44;2.20;;;2.00;;
8640;SDS011;4358;42.100;25.222;2023-06-26T11:11:11;2.28;;;1.88;;
8640;SDS011;4358;42.100;25.222;2023-06-26T11:13:38;2.42;;;1.77;;
8640;SDS011;4358;42.100;25.222;2023-06-26T11:16:05;2.22;;;1.75;;
8640;SDS011;4358;42.100;25.222;2023-06-26T11:18:32;2.55;;;2.20;;
8640;SDS011;4358;42.100;25.222;2023-06-26T11:21:04;3.50;;;1.83;;
8640;SDS011;4358;42.100;25.222;2023-06-26T11:23:35;2.13;;;1.92;;
8640;SDS011;4358;42.100;25.222;2023-06-26T11:26:16;3.65;;;1.98;;
8640;SDS011;4358;42.100;25.222;2023-06-26T11:28:47;5.80;;;2.38;;
8640;SDS011;4358;42.100;25.222;2023-06-26T11:31:24;4.15;;;2.47;;
8640;SDS011;4358;42.100;25.222;2023-06-26T11:33:52;4.50;;;2.50;;
8640;SDS011;4358;42.100;25.222;2023-06-26T11:36:19;2.30;;;2.10;;
8640;SDS011;4358;42.100;25.222;2023-06-26T11:38:53;3.10;;;2.60;;
8640;SDS011;4358;42.100;25.222;2023-06-26T11:41:21;2.40;;;2.20;;
8640;SDS011;4358;42.100;25.222;2023-06-26T11:43:48;2.83;;;2.40;;
8640;SDS011;4358;42.100;25.222;2023-06-26T11:46:18;9.17;;;2.30;;
8640;SDS011;4358;42.100;25.222;2023-06-26T11:48:45;4.07;;;2.70;;
8640;SDS011;4358;42.100;25.222;2023-06-26T11:51:13;4.37;;;2.00;;
8640;SDS011;4358;42.100;25.222;2023-06-26T11:53:40;2.30;;;2.10;;
8640;SDS011;4358;42.100;25.222;2023-06-26T11:56:10;2.93;;;2.40;;
8640;SDS011;4358;42.100;25.222;2023-06-26T12:01:26;4.53;;;2.27;;
8640;SDS011;4358;42.100;25.222;2023-06-26T12:04:00;3.37;;;2.00;;
8640;SDS011;4358;42.100;25.222;2023-06-26T12:06:28;3.23;;;2.00;;
8640;SDS011;4358;42.100;25.222;2023-06-26T12:08:57;2.43;;;2.13;;
8640;SDS011;4358;42.100;25.222;2023-06-26T12:11:27;4.10;;;2.30;;
8640;SDS011;4358;42.100;25.222;2023-06-26T12:13:55;6.20;;;2.27;;
8640;SDS011;4358;42.100;25.222;2023-06-26T12:16:22;3.27;;;2.30;;
8640;SDS011;4358;42.100;25.222;2023-06-26T12:18:49;9.40;;;3.20;;
8640;SDS011;4358;42.100;25.222;2023-06-26T12:21:28;3.30;;;3.00;;
8640;SDS011;4358;42.100;25.222;2023-06-26T12:24:13;7.40;;;3.73;;
8640;SDS011;4358;42.100;25.222;2023-06-26T12:26:43;3.43;;;2.37;;
8640;SDS011;4358;42.100;25.222;2023-06-26T12:29:11;2.90;;;2.43;;
8640;SDS011;4358;42.100;25.222;2023-06-26T12:31:42;3.27;;;2.47;;
8640;SDS011;4358;42.100;25.222;2023-06-26T12:34:12;2.97;;;2.40;;
8640;SDS011;4358;42.100;25.222;2023-06-26T12:36:42;2.47;;;2.27;;
8640;SDS011;4358;42.100;25.222;2023-06-26T12:39:10;3.27;;;2.27;;
8640;SDS011;4358;42.100;25.222;2023-06-26T12:41:52;2.50;;;2.30;;
8640;SDS011;4358;42.100;25.222;2023-06-26T12:44:31;5.17;;;2.73;;
8640;SDS011;4358;42.100;25.222;2023-06-26T12:47:05;7.50;;;3.57;;
8640;SDS011;4358;42.100;25.222;2023-06-26T12:49:33;7.63;;;3.40;;
8640;SDS011;4358;42.100;25.222;2023-06-26T12:52:21;7.70;;;3.97;;
8640;SDS011;4358;42.100;25.222;2023-06-26T12:54:51;4.50;;;3.50;;
8640;SDS011;4358;42.100;25.222;2023-06-26T12:57:21;7.43;;;3.20;;
8640;SDS011;4358;42.100;25.222;2023-06-26T12:59:48;9.87;;;3.70;;
8640;SDS011;4358;42.100;25.222;2023-06-26T13:02:15;3.13;;;2.80;;
8640;SDS011;4358;42.100;25.222;2023-06-26T13:04:42;4.93;;;3.10;;
8640;SDS011;4358;42.100;25.222;2023-06-26T13:07:09;3.63;;;3.07;;
8640;SDS011;4358;42.100;25.222;2023-06-26T13:09:36;4.67;;;3.33;;
8640;SDS011;4358;42.100;25.222;2023-06-26T13:12:05;3.73;;;3.03;;
8640;SDS011;4358;42.100;25.222;2023-06-26T13:14:33;7.00;;;5.03;;
8640;SDS011;4358;42.100;25.222;2023-06-26T13:17:00;10.60;;;3.63;;
8640;SDS011;4358;42.100;25.222;2023-06-26T13:19:27;3.87;;;2.70;;
8640;SDS011;4358;42.100;25.222;2023-06-26T13:21:54;3.20;;;2.90;;
8640;SDS011;4358;42.100;25.222;2023-06-26T13:24:21;6.87;;;3.80;;
8640;SDS011;4358;42.100;25.222;2023-06-26T13:26:48;3.93;;;2.90;;
8640;SDS011;4358;42.100;25.222;2023-06-26T13:29:15;5.90;;;3.27;;
8640;SDS011;4358;42.100;25.222;2023-06-26T13:31:43;3.80;;;3.03;;
8640;SDS011;4358;42.100;25.222;2023-06-26T13:34:19;3.67;;;3.07;;
8640;SDS011;4358;42.100;25.222;2023-06-26T13:36:47;4.10;;;3.70;;
8640;SDS011;4358;42.100;25.222;2023-06-26T13:39:13;6.83;;;3.93;;
8640;SDS011;4358;42.100;25.222;2023-06-26T13:41:40;5.73;;;4.37;;
8640;SDS011;4358;42.100;25.222;2023-06-26T13:44:07;11.33;;;6.27;;
8640;SDS011;4358;42.100;25.222;2023-06-26T13:46:34;6.87;;;5.27;;
8640;SDS011;4358;42.100;25.222;2023-06-26T13:49:02;6.13;;;4.60;;
8640;SDS011;4358;42.100;25.222;2023-06-26T13:51:29;7.63;;;5.30;;
8640;SDS011;4358;42.100;25.222;2023-06-26T13:53:56;9.60;;;7.23;;
8640;SDS011;4358;42.100;25.222;2023-06-26T13:56:25;5.77;;;4.70;;
8640;SDS011;4358;42.100;25.222;2023-06-26T13:58:53;4.13;;;3.70;;
8640;SDS011;4358;42.100;25.222;2023-06-26T14:01:20;7.40;;;5.10;;
8640;SDS011;4358;42.100;25.222;2023-06-26T14:03:47;10.83;;;6.40;;
8640;SDS011;4358;42.100;25.222;2023-06-26T14:06:15;3.93;;;3.27;;
8640;SDS011;4358;42.100;25.222;2023-06-26T14:08:42;5.50;;;4.33;;
8640;SDS011;4358;42.100;25.222;2023-06-26T14:11:08;5.17;;;3.30;;
8640;SDS011;4358;42.100;25.222;2023-06-26T14:13:35;7.40;;;5.57;;
8640;SDS011;4358;42.100;25.222;2023-06-26T14:16:02;8.57;;;6.83;;
8640;SDS011;4358;42.100;25.222;2023-06-26T14:18:32;7.13;;;5.43;;
8640;SDS011;4358;42.100;25.222;2023-06-26T14:21:00;5.37;;;4.70;;
8640;SDS011;4358;42.100;25.222;2023-06-26T14:23:30;11.30;;;4.57;;
8640;SDS011;4358;42.100;25.222;2023-06-26T14:25:57;5.10;;;3.83;;
8640;SDS011;4358;42.100;25.222;2023-06-26T14:28:24;5.70;;;3.40;;
8640;SDS011;4358;42.100;25.222;2023-06-26T14:30:50;7.27;;;4.00;;
8640;SDS011;4358;42.100;25.222;2023-06-26T14:33:17;4.23;;;3.60;;
8640;SDS011;4358;42.100;25.222;2023-06-26T14:35:44;5.13;;;3.73;;
8640;SDS011;4358;42.100;25.222;2023-06-26T14:38:11;4.00;;;3.27;;
8640;SDS011;4358;42.100;25.222;2023-06-26T14:40:39;4.90;;;3.33;;
8640;SDS011;4358;42.100;25.222;2023-06-26T14:43:06;3.97;;;2.80;;
8640;SDS011;4358;42.100;25.222;2023-06-26T14:45:33;3.40;;;2.80;;
8640;SDS011;4358;42.100;25.222;2023-06-26T14:47:59;3.50;;;2.87;;
8640;SDS011;4358;42.100;25.222;2023-06-26T14:50:26;3.73;;;3.13;;
8640;SDS011;4358;42.100;25.222;2023-06-26T14:52:53;3.90;;;3.47;;
8640;SDS011;4358;42.100;25.222;2023-06-26T14:55:20;4.70;;;3.93;;
8640;SDS011;4358;42.100;25.222;2023-06-26T14:57:48;7.23;;;3.47;;
8640;SDS011;4358;42.100;25.222;2023-06-26T15:00:15;6.00;;;3.33;;
8640;SDS011;4358;42.100;25.222;2023-06-26T15:02:42;3.27;;;2.97;;
8640;SDS011;4358;42.100;25.222;2023-06-26T15:05:09;3.60;;;2.90;;
8640;SDS011;4358;42.100;25.222;2023-06-26T15:07:36;4.53;;;3.20;;
8640;SDS011;4358;42.100;25.222;2023-06-26T15:10:03;4.43;;;3.40;;